LEGELEVX

Guest
Details From LEGE - Girona
To LEVX - Vigo
Flight Number -
Tags Generated
Created
Modified
Stats Distance 508 nm / 941 km
Max Altitude 0 ft / 0 m
Waypoints 4
Social Downloads 3
Likes 0
Share VATSIM

Download

Looking for another format? Having issues loading an existing format? Contact us
Advertisement - Login to hide

Notes

Generated

Route

LEGE VABAR BIRMI LEVX

ID Type Via Altitude Latitude Longitude Leg Dist Tot Dist Heading (true) Name
O LEGE APT - 0 ft / 0 m 41.89491˚ 2.75826˚ - 0 nm - -
VABAR FIX - 0 ft / 0 m 42.17100˚ -2.61533˚ 240 nm 240 nm 276° / 272° -
BIRMI FIX - 0 ft / 0 m 42.29444˚ -8.19894˚ 248 nm 488 nm 274° / 270° -
O LEVX APT - 0 ft / 0 m 42.22128˚ -8.62966˚ 19 nm 508 nm 257° / 257° -

Altitude Profile

Advertisement - Login to hide

Weather


0- 5 10 15 20 25 30 35+ Temperature / ° C

Clouds and Precipitation
Forecast for 2018-05-23 00:00 UTC. Updated 3 hours ago

Ground ~20,000 ft ~40,000 ft Winds

LEGE

Details ICAO LEGE (GRO)
Name Girona
Region Spain
Timezone Europe/Madrid (UTC+2.0)
Stats Elevation 403 ft / 123 m (AMSL)
Location 41.905202° 2.762133°
Runways 1
Magnetic Variation 1.027° E

METAR

LEGE 230200Z 00000KT 9999 FEW030 12/12 Q1016

Decode

TAF

TAF LEGE 222300Z 2300/2324 VRB03KT 9999 FEW030 TX26/2313Z TN12/2306Z PROB30 TEMPO 2300/2306 2000 BR BECMG 2311/2313 17012KT PROB40 TEMPO 2310/2315 FEW040TCU BECMG 2319/2321 VRB03KT

Decode

Departure Runways

ID Width Length Bearing (true) Bearing (mag) Surface Threshold Offset Overrun Length
02 148 ft / 45 m 7,880 ft / 2,402 m 15.50° 14.47° Asphalt 0 ft / 0 m 210 ft / 64 m
20 148 ft / 45 m 7,880 ft / 2,402 m 195.50° 194.47° Asphalt 0 ft / 0 m 200 ft / 61 m

LEVX

Details ICAO LEVX (VGO)
Name Vigo
Region Spain
Timezone Europe/Madrid (UTC+2.0)
Stats Elevation 855 ft / 261 m (AMSL)
Location 42.231894° -8.626774°
Runways 1
Magnetic Variation 2.333° W

METAR

LEVX 230200Z 01003KT 8000 R19/1100D BCFG NSC 12/11 Q1015 NOSIG

Decode

TAF

TAF LEVX 222300Z 2300/2324 VRB02KT CAVOK TX25/2313Z TN12/2306Z BECMG 2310/2312 29010KT PROB30 TEMPO 2300/2307 3000 BCFG

Decode

Destination Runways

ID Width Length Bearing (true) Bearing (mag) Surface Threshold Offset Overrun Length
02 148 ft / 45 m 7,905 ft / 2,409 m 11.38° 13.71° Asphalt 0 ft / 0 m 164 ft / 50 m
20 148 ft / 45 m 7,905 ft / 2,409 m 191.38° 193.71° Asphalt 0 ft / 0 m 164 ft / 50 m

Approach Navaids

Runway Type Ident Frequency Range Bearing (true) Bearing (mag) Slope Elevation
20 Localiser VIG 110.90 MHz 18 nm / 33 km 191.38° 193.71° - 855 ft / 261 m (AMSL)
20 Glidescope VIG 110.90 MHz 10 nm / 19 km 191.38° 193.71° 3.00° 855 ft / 261 m (AMSL)
20 DME VIG 110.90 MHz 18 nm / 33 km - - - 833 ft / 254 m (AMSL)

Popular Alternatives